createdAt,value
2018-03-11T00:00:11.908Z,10.11
2018-03-11T00:01:18.404Z,10.18
2018-03-11T00:02:24.696Z,10.14
2018-03-11T00:03:30.545Z,10.16
2018-03-11T00:04:36.676Z,10.12
2018-03-11T00:05:43.604Z,10.13
2018-03-11T00:06:49.781Z,10.12
2018-03-11T00:07:55.902Z,10.17
2018-03-11T00:09:02.022Z,10.18
2018-03-11T00:10:08.240Z,10.07
2018-03-11T00:11:14.362Z,10.05
2018-03-11T00:12:20.536Z,10.05
2018-03-11T00:13:26.419Z,10.03
2018-03-11T00:14:32.565Z,9.97
2018-03-11T00:15:38.646Z,9.94
2018-03-11T00:16:44.742Z,9.93
2018-03-11T00:17:51.123Z,9.90
2018-03-11T00:18:57.005Z,9.86
2018-03-11T00:20:03.176Z,9.82
2018-03-11T00:21:08.848Z,9.84
2018-03-11T00:22:14.983Z,9.80
2018-03-11T00:23:20.840Z,9.80
2018-03-11T00:24:26.968Z,9.77
2018-03-11T00:25:33.871Z,9.75
2018-03-11T00:26:41.011Z,9.78
2018-03-11T00:27:47.295Z,9.74
2018-03-11T00:28:53.390Z,9.62
2018-03-11T00:30:01.415Z,9.63
2018-03-11T00:31:07.764Z,9.52
2018-03-11T00:32:13.924Z,9.47
2018-03-11T00:33:20.113Z,9.43
2018-03-11T00:34:26.252Z,9.41
2018-03-11T00:35:32.389Z,9.28
2018-03-11T00:36:38.481Z,9.16
2018-03-11T00:37:44.623Z,9.16
2018-03-11T00:38:50.716Z,9.01
2018-03-11T00:39:56.822Z,9.10
2018-03-11T00:41:03.217Z,9.07
2018-03-11T00:42:09.370Z,9.10
2018-03-11T00:43:15.571Z,9.05
2018-03-11T00:44:21.930Z,9.02
2018-03-11T00:45:28.048Z,8.99
2018-03-11T00:46:34.182Z,8.95
2018-03-11T00:47:40.322Z,8.97
2018-03-11T00:48:46.432Z,8.98
2018-03-11T00:49:52.569Z,8.96
2018-03-11T00:50:58.758Z,8.98
2018-03-11T00:52:04.936Z,8.92
2018-03-11T00:53:11.078Z,8.96
2018-03-11T00:54:17.557Z,8.93
2018-03-11T00:55:23.670Z,8.89
2018-03-11T00:56:29.779Z,8.83
2018-03-11T00:57:36.016Z,8.83
2018-03-11T00:58:42.154Z,8.74
2018-03-11T00:59:48.291Z,8.61
2018-03-11T01:00:55.360Z,8.52
2018-03-11T01:02:01.512Z,8.44
2018-03-11T01:03:07.652Z,8.24
2018-03-11T01:04:13.813Z,8.18
2018-03-11T01:05:19.632Z,8.20
2018-03-11T01:06:25.785Z,8.31
2018-03-11T01:07:31.661Z,8.27
2018-03-11T01:08:40.061Z,8.25
2018-03-11T01:09:46.204Z,8.26
2018-03-11T01:10:52.392Z,8.23
2018-03-11T01:11:58.582Z,8.20
2018-03-11T01:13:04.722Z,8.18
2018-03-11T01:14:10.593Z,8.24
2018-03-11T01:15:17.794Z,8.29
2018-03-11T01:16:24.205Z,8.32
2018-03-11T01:17:30.303Z,8.38
2018-03-11T01:18:36.436Z,8.37
2018-03-11T01:19:42.545Z,8.36
2018-03-11T01:20:48.796Z,8.31
2018-03-11T01:21:54.983Z,8.30
2018-03-11T01:23:01.173Z,8.27
2018-03-11T01:24:07.332Z,8.35
2018-03-11T01:25:13.440Z,8.39
2018-03-11T01:26:19.571Z,8.36
2018-03-11T01:27:25.741Z,8.39
2018-03-11T01:28:32.794Z,8.39
2018-03-11T01:29:38.931Z,8.40
2018-03-11T01:30:45.089Z,8.38
2018-03-11T01:31:52.068Z,8.35
2018-03-11T01:32:58.214Z,8.35
2018-03-11T01:34:06.421Z,8.38
2018-03-11T01:35:12.544Z,8.37
2018-03-11T01:36:18.724Z,8.38
2018-03-11T01:37:24.908Z,8.48
2018-03-11T01:38:31.018Z,8.48
2018-03-11T01:39:38.358Z,8.48
2018-03-11T01:40:44.485Z,8.49
2018-03-11T01:41:51.026Z,8.48
2018-03-11T01:42:57.184Z,8.50
2018-03-11T01:44:05.182Z,8.54
2018-03-11T01:45:10.929Z,8.43
2018-03-11T01:46:17.075Z,8.49
2018-03-11T01:47:24.074Z,8.42
2018-03-11T01:48:30.200Z,8.34
2018-03-11T01:49:36.320Z,8.34
2018-03-11T01:50:42.461Z,8.31
2018-03-11T01:51:48.689Z,8.31
2018-03-11T01:53:11.133Z,8.21
2018-03-11T01:54:17.233Z,8.15
2018-03-11T01:55:24.265Z,8.17
2018-03-11T01:56:30.416Z,8.09
2018-03-11T01:57:36.569Z,8.03
2018-03-11T01:58:42.715Z,7.96
2018-03-11T01:59:48.816Z,7.95
2018-03-11T02:00:54.973Z,7.88
2018-03-11T02:02:00.119Z,7.84
2018-03-11T02:03:06.249Z,7.83
2018-03-11T02:04:12.449Z,7.87
2018-03-11T02:05:18.544Z,7.89
2018-03-11T02:06:24.674Z,7.89
2018-03-11T02:07:30.823Z,7.89
2018-03-11T02:08:36.972Z,7.90
2018-03-11T02:09:43.165Z,7.89
2018-03-11T02:10:49.095Z,7.83
2018-03-11T02:11:55.259Z,7.75
2018-03-11T02:13:01.434Z,7.76
2018-03-11T02:14:07.650Z,7.75
2018-03-11T02:15:13.759Z,7.68
2018-03-11T02:16:19.861Z,7.66
2018-03-11T02:17:28.845Z,7.72
2018-03-11T02:18:34.642Z,7.70
2018-03-11T02:19:40.153Z,7.70
2018-03-11T02:20:46.359Z,7.74
2018-03-11T02:21:52.491Z,7.81
2018-03-11T02:22:58.635Z,7.70
2018-03-11T02:24:04.488Z,7.73
2018-03-11T02:25:10.610Z,7.65
2018-03-11T02:26:16.768Z,7.64
2018-03-11T02:27:23.876Z,7.55
2018-03-11T02:28:30.532Z,7.58
2018-03-11T02:29:36.446Z,7.60
2018-03-11T02:30:42.547Z,7.54
2018-03-11T02:31:48.625Z,7.50
2018-03-11T02:32:54.761Z,7.62
2018-03-11T02:34:00.983Z,7.64
2018-03-11T02:35:07.194Z,7.54
2018-03-11T02:36:13.097Z,7.59
2018-03-11T02:37:18.981Z,7.68
2018-03-11T02:38:25.177Z,7.71
2018-03-11T02:39:31.306Z,7.69
2018-03-11T02:40:37.480Z,7.68
2018-03-11T02:41:43.700Z,7.67
2018-03-11T02:42:49.821Z,7.66
2018-03-11T02:43:55.995Z,7.62
2018-03-11T02:45:02.145Z,7.62
2018-03-11T02:46:08.349Z,7.65
2018-03-11T02:47:14.242Z,7.63
2018-03-11T02:48:21.365Z,7.63
2018-03-11T02:49:27.484Z,7.71
2018-03-11T02:50:33.678Z,7.77
2018-03-11T02:51:39.846Z,7.84
2018-03-11T02:52:46.004Z,7.84
2018-03-11T02:53:52.156Z,7.72
2018-03-11T02:54:58.583Z,7.56
2018-03-11T02:56:04.362Z,7.59
2018-03-11T02:57:10.505Z,7.50
2018-03-11T02:58:16.645Z,7.51
2018-03-11T02:59:23.074Z,7.57
2018-03-11T03:00:29.186Z,7.57
2018-03-11T03:01:35.345Z,7.58
2018-03-11T03:02:41.543Z,7.55
2018-03-11T03:03:47.686Z,7.41
2018-03-11T03:04:53.857Z,7.53
2018-03-11T03:05:59.988Z,7.47
2018-03-11T03:07:06.177Z,7.41
2018-03-11T03:08:12.006Z,7.41
2018-03-11T03:09:17.872Z,7.25
2018-03-11T03:10:23.984Z,7.16
2018-03-11T03:11:29.886Z,7.17
2018-03-11T03:12:35.854Z,7.08
2018-03-11T03:13:41.683Z,7.10
2018-03-11T03:14:48.502Z,7.12
2018-03-11T03:15:54.697Z,7.18
2018-03-11T03:17:00.545Z,7.16
2018-03-11T03:18:07.117Z,7.06
2018-03-11T03:19:13.245Z,7.00
2018-03-11T03:20:19.345Z,6.86
2018-03-11T03:21:25.528Z,6.91
2018-03-11T03:22:31.653Z,6.91
2018-03-11T03:23:37.803Z,6.83
2018-03-11T03:24:43.977Z,6.82
2018-03-11T03:25:50.152Z,6.79
2018-03-11T03:26:56.293Z,6.77
2018-03-11T03:28:02.460Z,6.74
2018-03-11T03:29:08.630Z,6.74
2018-03-11T03:30:14.847Z,6.71
2018-03-11T03:31:20.956Z,6.69
2018-03-11T03:32:27.085Z,6.69
2018-03-11T03:33:33.236Z,6.69
2018-03-11T03:34:39.733Z,6.68
2018-03-11T03:35:45.853Z,6.63
2018-03-11T03:36:52.009Z,6.53
2018-03-11T03:37:59.058Z,6.55
2018-03-11T03:39:04.507Z,6.56
2018-03-11T03:40:10.673Z,6.50
2018-03-11T03:41:16.853Z,6.46
2018-03-11T03:42:23.014Z,6.36
2018-03-11T03:43:30.133Z,6.45
2018-03-11T03:44:36.339Z,6.54
2018-03-11T03:45:42.494Z,6.48
2018-03-11T03:46:48.680Z,6.53
2018-03-11T03:47:55.142Z,6.63
2018-03-11T03:49:01.283Z,6.71
2018-03-11T03:50:07.399Z,6.68
2018-03-11T03:51:13.568Z,6.71
2018-03-11T03:52:20.521Z,6.72
2018-03-11T03:53:26.668Z,6.69
2018-03-11T03:54:32.817Z,6.68
2018-03-11T03:55:39.029Z,6.62
2018-03-11T03:56:44.823Z,6.51
2018-03-11T03:57:51.043Z,6.57
2018-03-11T03:58:57.449Z,6.62
2018-03-11T04:00:08.554Z,6.55
2018-03-11T04:01:14.661Z,6.45
2018-03-11T04:02:20.785Z,6.27
2018-03-11T04:03:26.900Z,6.22
2018-03-11T04:04:33.048Z,6.24
2018-03-11T04:05:39.200Z,6.22
2018-03-11T04:06:46.207Z,6.26
2018-03-11T04:07:52.315Z,6.25
2018-03-11T04:08:58.184Z,6.29
2018-03-11T04:10:03.629Z,6.24
2018-03-11T04:11:09.834Z,6.21
2018-03-11T04:12:16.028Z,6.18
2018-03-11T04:13:22.224Z,6.16
2018-03-11T04:14:28.437Z,6.24
2018-03-11T04:15:34.654Z,6.18
2018-03-11T04:16:40.812Z,6.16
2018-03-11T04:17:46.717Z,6.12
2018-03-11T04:18:52.604Z,6.28
2018-03-11T04:19:59.632Z,6.49
2018-03-11T04:21:05.832Z,6.59
2018-03-11T04:22:13.110Z,6.67
2018-03-11T04:23:19.347Z,6.72
2018-03-11T04:24:25.609Z,6.72
2018-03-11T04:25:31.796Z,6.79
2018-03-11T04:26:38.017Z,6.79
2018-03-11T04:27:44.163Z,6.82
2018-03-11T04:28:50.348Z,6.78
2018-03-11T04:29:56.491Z,6.80
2018-03-11T04:31:02.658Z,6.71
2018-03-11T04:32:08.795Z,6.75
2018-03-11T04:33:14.975Z,6.77
2018-03-11T04:34:21.179Z,6.76
2018-03-11T04:35:27.328Z,6.83
2018-03-11T04:36:34.380Z,6.86
2018-03-11T04:37:40.534Z,6.84
2018-03-11T04:38:46.753Z,6.91
2018-03-11T04:39:52.922Z,6.95
2018-03-11T04:40:59.055Z,6.99
2018-03-11T04:42:10.364Z,6.99
2018-03-11T04:43:16.547Z,6.95
2018-03-11T04:44:22.714Z,7.10
2018-03-11T04:45:28.606Z,7.08
2018-03-11T04:46:34.739Z,7.13
2018-03-11T04:47:42.779Z,7.12
2018-03-11T04:48:48.913Z,7.12
2018-03-11T04:49:55.384Z,7.15
2018-03-11T04:51:01.550Z,7.14
2018-03-11T04:52:07.785Z,7.19
2018-03-11T04:53:13.962Z,7.19
2018-03-11T04:54:20.076Z,7.20
2018-03-11T04:55:26.253Z,7.14
2018-03-11T04:56:32.481Z,7.14
2018-03-11T04:57:38.723Z,7.16
2018-03-11T04:58:45.805Z,7.15
2018-03-11T04:59:51.988Z,7.11
2018-03-11T05:00:58.174Z,7.11
2018-03-11T05:02:04.486Z,7.02
2018-03-11T05:03:10.603Z,6.92
2018-03-11T05:04:16.747Z,7.00
2018-03-11T05:05:22.890Z,7.02
2018-03-11T05:06:29.257Z,7.05
2018-03-11T05:07:35.406Z,7.13
2018-03-11T05:08:41.576Z,7.20
2018-03-11T05:09:47.938Z,7.17
2018-03-11T05:10:54.087Z,7.17
2018-03-11T05:12:00.214Z,7.26
2018-03-11T05:13:06.470Z,7.27
2018-03-11T05:14:12.639Z,7.28
2018-03-11T05:15:18.833Z,7.36
2018-03-11T05:16:25.017Z,7.39
2018-03-11T05:17:31.152Z,7.37
2018-03-11T05:18:37.340Z,7.36
2018-03-11T05:19:43.448Z,7.39
2018-03-11T05:20:49.622Z,7.45
2018-03-11T05:21:56.125Z,7.41
2018-03-11T05:23:02.247Z,7.39
2018-03-11T05:24:08.368Z,7.46
2018-03-11T05:25:14.519Z,7.42
2018-03-11T05:26:21.551Z,7.44
2018-03-11T05:27:28.632Z,7.33
2018-03-11T05:28:34.823Z,7.35
2018-03-11T05:29:41.017Z,7.30
2018-03-11T05:30:47.232Z,7.31
2018-03-11T05:31:53.399Z,7.33
2018-03-11T05:32:59.556Z,7.43
2018-03-11T05:34:05.702Z,7.39
2018-03-11T05:35:11.879Z,7.30
2018-03-11T05:36:18.061Z,7.25
2018-03-11T05:37:24.449Z,7.27
2018-03-11T05:38:31.544Z,7.35
2018-03-11T05:39:37.727Z,7.38
2018-03-11T05:40:43.863Z,7.31
2018-03-11T05:41:50.303Z,7.34
2018-03-11T05:42:57.444Z,7.36
2018-03-11T05:44:03.691Z,7.44
2018-03-11T05:45:09.865Z,7.49
2018-03-11T05:46:17.033Z,7.44
2018-03-11T05:47:23.180Z,7.53
2018-03-11T05:48:29.390Z,7.44
2018-03-11T05:49:35.536Z,7.42
2018-03-11T05:50:41.689Z,7.56
2018-03-11T05:51:48.633Z,7.54
2018-03-11T05:52:54.869Z,7.58
2018-03-11T05:54:02.862Z,7.65
2018-03-11T05:55:09.012Z,7.68
2018-03-11T05:56:15.334Z,7.76
2018-03-11T05:57:21.496Z,7.78
2018-03-11T05:58:27.642Z,7.76
2018-03-11T05:59:33.801Z,7.77
2018-03-11T06:00:39.935Z,7.81
2018-03-11T06:01:46.091Z,7.83
2018-03-11T06:02:52.210Z,7.85
2018-03-11T06:03:59.248Z,7.84
2018-03-11T06:05:05.397Z,7.86
2018-03-11T06:06:11.701Z,7.88
2018-03-11T06:07:18.793Z,7.92
2018-03-11T06:08:24.930Z,7.92
2018-03-11T06:09:31.100Z,7.89
2018-03-11T06:10:37.123Z,7.87
2018-03-11T06:11:43.459Z,7.71
2018-03-11T06:12:49.618Z,7.68
2018-03-11T06:13:55.761Z,7.76
2018-03-11T06:15:02.014Z,7.78
2018-03-11T06:16:08.186Z,7.83
2018-03-11T06:17:14.376Z,7.77
2018-03-11T06:18:21.506Z,7.59
2018-03-11T06:19:27.642Z,7.76
2018-03-11T06:20:33.860Z,7.85
2018-03-11T06:21:40.062Z,7.90
2018-03-11T06:22:46.263Z,7.94
2018-03-11T06:23:52.401Z,7.95
2018-03-11T06:24:58.635Z,8.00
2018-03-11T06:26:04.774Z,8.00
2018-03-11T06:27:10.911Z,8.02
2018-03-11T06:28:17.032Z,7.91
2018-03-11T06:29:24.369Z,7.95
2018-03-11T06:30:30.953Z,8.01
2018-03-11T06:31:37.124Z,8.03
2018-03-11T06:32:43.273Z,8.03
2018-03-11T06:33:50.067Z,8.05
2018-03-11T06:34:56.263Z,8.01
2018-03-11T06:36:02.437Z,8.03
2018-03-11T06:37:08.279Z,8.10
2018-03-11T06:38:21.500Z,8.09
2018-03-11T06:39:28.790Z,8.16
2018-03-11T06:40:37.312Z,8.20
2018-03-11T06:41:45.366Z,7.98
2018-03-11T06:42:53.384Z,7.82
2018-03-11T06:44:00.885Z,7.77
2018-03-11T06:45:10.547Z,7.77
2018-03-11T06:46:18.440Z,7.88
2018-03-11T06:47:26.866Z,7.83
2018-03-11T06:48:33.942Z,7.88
2018-03-11T06:49:40.553Z,7.84
2018-03-11T06:50:46.980Z,7.84
2018-03-11T06:51:53.703Z,7.86
2018-03-11T06:53:02.019Z,7.90
2018-03-11T06:54:09.809Z,7.97
2018-03-11T06:55:16.012Z,8.01
2018-03-11T06:56:22.235Z,8.07
2018-03-11T06:57:28.574Z,8.09
2018-03-11T06:58:35.953Z,8.10
2018-03-11T06:59:42.829Z,8.10
2018-03-11T07:00:51.014Z,8.05
2018-03-11T07:01:57.529Z,8.03
2018-03-11T07:03:04.561Z,8.03
2018-03-11T07:04:10.988Z,8.07
2018-03-11T07:05:17.893Z,8.13
2018-03-11T07:06:24.872Z,8.22
2018-03-11T07:07:32.617Z,8.35
2018-03-11T07:08:39.596Z,8.36
2018-03-11T07:09:46.760Z,8.35
2018-03-11T07:10:53.408Z,8.33
2018-03-11T07:12:01.555Z,8.40
2018-03-11T07:13:08.718Z,8.47
2018-03-11T07:14:15.156Z,8.53
2018-03-11T07:15:22.118Z,8.64
2018-03-11T07:16:29.996Z,8.70
2018-03-11T07:17:36.666Z,8.63
2018-03-11T07:18:43.139Z,8.57
2018-03-11T07:19:49.591Z,8.63
2018-03-11T07:20:56.826Z,8.64
2018-03-11T07:22:03.705Z,8.72
2018-03-11T07:23:10.474Z,8.65
2018-03-11T07:24:17.151Z,8.60
2018-03-11T07:25:24.281Z,8.65
2018-03-11T07:26:32.496Z,8.75
2018-03-11T07:27:39.509Z,8.79
2018-03-11T07:28:46.385Z,8.75
2018-03-11T07:29:53.514Z,8.77
2018-03-11T07:31:00.100Z,8.89
2018-03-11T07:32:07.986Z,8.91
2018-03-11T07:33:14.756Z,8.92
2018-03-11T07:34:22.273Z,8.96
2018-03-11T07:35:29.202Z,8.98
2018-03-11T07:36:35.924Z,8.97
2018-03-11T07:37:44.135Z,8.88
2018-03-11T07:38:50.738Z,8.80
2018-03-11T07:39:58.291Z,8.81
2018-03-11T07:41:05.301Z,8.76
2018-03-11T07:42:13.015Z,8.83
2018-03-11T07:43:20.501Z,8.78
2018-03-11T07:44:27.440Z,8.79
2018-03-11T07:45:34.601Z,8.84
2018-03-11T07:46:41.467Z,8.95
2018-03-11T07:47:50.177Z,9.02
2018-03-11T07:48:56.732Z,9.14
2018-03-11T07:50:03.705Z,9.15
2018-03-11T07:51:10.368Z,9.20
2018-03-11T07:52:17.175Z,9.24
2018-03-11T07:53:24.030Z,9.25
2018-03-11T07:54:30.718Z,9.28
2018-03-11T07:55:38.075Z,9.28
2018-03-11T07:56:44.713Z,9.31
2018-03-11T07:57:51.634Z,9.29
2018-03-11T07:58:58.568Z,9.32
2018-03-11T08:00:04.785Z,9.41
2018-03-11T08:01:11.635Z,9.39
2018-03-11T08:02:18.401Z,9.45
2018-03-11T08:03:25.407Z,9.55
2018-03-11T08:04:31.924Z,9.56
2018-03-11T08:05:38.427Z,9.30
2018-03-11T08:06:44.663Z,9.24
2018-03-11T08:07:51.453Z,9.30
2018-03-11T08:08:58.481Z,9.26
2018-03-11T08:10:05.246Z,9.22
2018-03-11T08:11:11.961Z,9.25
2018-03-11T08:12:18.485Z,9.20
2018-03-11T08:13:25.618Z,9.29
2018-03-11T08:14:31.950Z,9.29
2018-03-11T08:15:38.378Z,9.36
2018-03-11T08:16:45.909Z,9.43
2018-03-11T08:17:52.550Z,9.48
2018-03-11T08:18:58.898Z,9.45
2018-03-11T08:20:04.691Z,9.59
2018-03-11T08:21:10.932Z,9.77
2018-03-11T08:22:17.153Z,9.85
2018-03-11T08:23:23.355Z,9.85
2018-03-11T08:24:29.552Z,9.80
2018-03-11T08:25:35.701Z,9.69
2018-03-11T08:26:41.833Z,9.81
2018-03-11T08:27:48.037Z,9.79
2018-03-11T08:28:54.180Z,9.92
2018-03-11T08:30:00.341Z,10.05
2018-03-11T08:31:06.321Z,10.17
2018-03-11T08:32:12.228Z,10.05
2018-03-11T08:33:18.425Z,10.09
2018-03-11T08:34:24.619Z,9.94
2018-03-11T08:35:30.761Z,9.99
2018-03-11T08:36:36.934Z,10.05
2018-03-11T08:37:42.882Z,10.04
2018-03-11T08:38:49.144Z,10.14
2018-03-11T08:39:55.349Z,10.26
2018-03-11T08:41:04.545Z,10.29
2018-03-11T08:42:10.439Z,10.22
2018-03-11T08:43:16.699Z,10.35
2018-03-11T08:44:22.896Z,10.44
2018-03-11T08:45:29.560Z,10.34
2018-03-11T08:46:35.856Z,10.38
2018-03-11T08:47:42.069Z,10.41
2018-03-11T08:48:48.273Z,10.47
2018-03-11T08:49:55.467Z,10.57
2018-03-11T08:51:02.704Z,10.61
2018-03-11T08:52:08.887Z,10.46
2018-03-11T08:53:15.149Z,10.22
2018-03-11T08:54:21.169Z,10.18
2018-03-11T08:55:27.444Z,10.34
2018-03-11T08:56:34.162Z,10.48
2018-03-11T08:57:40.380Z,10.58
2018-03-11T08:58:46.586Z,10.64
2018-03-11T08:59:52.810Z,10.67
2018-03-11T09:00:59.101Z,10.81
2018-03-11T09:02:05.039Z,10.74
2018-03-11T09:03:11.260Z,10.60
2018-03-11T09:04:17.510Z,10.58
2018-03-11T09:05:23.688Z,10.50
2018-03-11T09:06:30.268Z,10.54
2018-03-11T09:07:36.434Z,10.65
2018-03-11T09:08:42.592Z,10.84
2018-03-11T09:09:48.818Z,11.02
2018-03-11T09:10:55.064Z,11.11
2018-03-11T09:12:01.379Z,11.18
2018-03-11T09:13:09.424Z,11.29
2018-03-11T09:14:16.621Z,11.27
2018-03-11T09:15:23.140Z,11.29
2018-03-11T09:16:29.879Z,11.32
2018-03-11T09:17:36.913Z,11.32
2018-03-11T09:18:43.402Z,11.40
2018-03-11T09:19:50.065Z,11.38
2018-03-11T09:20:56.265Z,11.47
2018-03-11T09:22:03.019Z,11.61
2018-03-11T09:23:09.608Z,11.64
2018-03-11T09:24:17.185Z,11.43
2018-03-11T09:25:23.765Z,11.71
2018-03-11T09:26:30.761Z,11.99
2018-03-11T09:27:37.327Z,12.25
2018-03-11T09:28:45.082Z,12.41
2018-03-11T09:29:51.985Z,11.99
2018-03-11T09:30:59.240Z,12.19
2018-03-11T09:32:06.007Z,12.39
2018-03-11T09:33:13.239Z,12.26
2018-03-11T09:34:20.030Z,12.14
2018-03-11T09:35:26.246Z,12.34
2018-03-11T09:36:33.026Z,12.57
2018-03-11T09:37:39.980Z,12.78
2018-03-11T09:38:46.545Z,12.99
2018-03-11T09:39:53.519Z,13.06
2018-03-11T09:41:00.001Z,12.81
2018-03-11T09:42:06.513Z,12.79
2018-03-11T09:43:13.668Z,12.70
2018-03-11T09:44:20.723Z,12.84
2018-03-11T09:45:27.607Z,13.01
2018-03-11T09:46:35.718Z,13.12
2018-03-11T09:47:42.359Z,12.88
2018-03-11T09:48:49.061Z,12.84
2018-03-11T09:49:55.598Z,12.88
2018-03-11T09:51:02.581Z,12.91
2018-03-11T09:52:09.411Z,12.92
2018-03-11T09:53:16.350Z,12.69
2018-03-11T09:54:22.990Z,12.81
2018-03-11T09:55:29.760Z,12.98
2018-03-11T09:56:37.444Z,13.13
2018-03-11T09:57:43.643Z,13.13
2018-03-11T09:58:50.889Z,13.14
2018-03-11T09:59:57.882Z,13.31
2018-03-11T10:01:05.570Z,13.24
2018-03-11T10:02:12.425Z,13.19
2018-03-11T10:03:24.141Z,13.17
2018-03-11T10:04:31.750Z,13.37
2018-03-11T10:05:38.215Z,13.24
2018-03-11T10:06:44.833Z,13.39
2018-03-11T10:07:51.650Z,13.38
2018-03-11T10:08:58.392Z,13.27
2018-03-11T10:10:06.177Z,13.39
2018-03-11T10:11:13.266Z,13.22
2018-03-11T10:12:22.129Z,13.21
2018-03-11T10:13:29.515Z,13.24
2018-03-11T10:14:36.358Z,13.35
2018-03-11T10:15:44.080Z,13.50
2018-03-11T10:16:50.621Z,13.44
2018-03-11T10:17:57.743Z,13.63
2018-03-11T10:19:04.576Z,13.83
2018-03-11T10:20:11.101Z,14.07
2018-03-11T10:21:17.348Z,14.09
2018-03-11T10:22:23.834Z,13.77
2018-03-11T10:23:31.184Z,13.59
2018-03-11T10:24:38.774Z,13.41
2018-03-11T10:25:45.448Z,13.45
2018-03-11T10:26:53.074Z,13.41
2018-03-11T10:28:00.377Z,13.52
2018-03-11T10:29:06.729Z,13.66
2018-03-11T10:30:13.475Z,13.73
2018-03-11T10:31:20.048Z,13.61
2018-03-11T10:32:26.731Z,13.56
2018-03-11T10:33:33.127Z,13.74
2018-03-11T10:34:39.696Z,13.72
2018-03-11T10:35:46.661Z,13.61
2018-03-11T10:36:53.312Z,13.71
2018-03-11T10:38:00.405Z,13.82
2018-03-11T10:39:08.316Z,13.77
2018-03-11T10:40:15.370Z,13.80
2018-03-11T10:41:22.080Z,13.70
2018-03-11T10:42:28.947Z,13.79
2018-03-11T10:43:35.354Z,14.03
2018-03-11T10:44:41.564Z,14.15
2018-03-11T10:45:47.800Z,14.27
2018-03-11T10:46:54.046Z,14.46
2018-03-11T10:48:01.752Z,14.58
2018-03-11T10:49:08.001Z,14.72
2018-03-11T10:50:14.384Z,14.51
2018-03-11T10:51:20.639Z,14.38
2018-03-11T10:52:28.592Z,14.14
2018-03-11T10:53:34.844Z,14.06
2018-03-11T10:54:41.108Z,14.00
2018-03-11T10:55:47.694Z,14.01
2018-03-11T10:56:53.945Z,14.14
2018-03-11T10:58:00.386Z,13.94
2018-03-11T10:59:06.631Z,13.87
2018-03-11T11:00:12.834Z,13.87
2018-03-11T11:01:24.207Z,13.72
2018-03-11T11:02:37.096Z,13.74
2018-03-11T11:05:17.675Z,13.75
2018-03-11T11:06:23.912Z,13.69
2018-03-11T11:07:30.143Z,13.63
2018-03-11T11:08:36.793Z,13.63
2018-03-11T11:09:42.996Z,13.65
2018-03-11T11:10:49.216Z,13.80
2018-03-11T11:11:55.401Z,13.93
2018-03-11T11:13:01.647Z,13.97
2018-03-11T11:14:07.960Z,13.77
2018-03-11T11:15:15.111Z,13.80
2018-03-11T11:16:21.338Z,13.90
2018-03-11T11:17:27.523Z,14.06
2018-03-11T11:18:33.787Z,14.16
2018-03-11T11:19:39.973Z,14.26
2018-03-11T11:20:46.200Z,14.33
2018-03-11T11:21:52.409Z,14.31
2018-03-11T11:22:58.627Z,14.22
2018-03-11T11:24:04.853Z,14.28
2018-03-11T11:25:11.729Z,14.45
2018-03-11T11:26:17.913Z,14.37
2018-03-11T11:27:23.918Z,14.28
2018-03-11T11:28:31.056Z,14.37
2018-03-11T11:29:37.308Z,14.55
2018-03-11T11:30:43.595Z,14.72
2018-03-11T11:31:49.900Z,14.54
2018-03-11T11:32:56.137Z,14.58
2018-03-11T11:34:02.419Z,14.38
2018-03-11T11:35:08.945Z,14.49
2018-03-11T11:36:15.254Z,14.49
2018-03-11T11:37:21.594Z,14.72
2018-03-11T11:38:27.840Z,14.81
2018-03-11T11:39:34.204Z,15.01
2018-03-11T11:40:40.517Z,15.15
2018-03-11T11:41:46.800Z,15.03
2018-03-11T11:42:53.108Z,15.12
2018-03-11T11:43:59.378Z,15.14
2018-03-11T11:45:05.602Z,15.10
2018-03-11T11:46:12.412Z,15.09
2018-03-11T11:47:18.707Z,15.18
2018-03-11T11:48:25.518Z,15.44
2018-03-11T11:49:33.511Z,15.51
2018-03-11T11:50:39.716Z,15.42
2018-03-11T11:51:45.973Z,15.28
2018-03-11T11:52:52.262Z,15.35
2018-03-11T11:53:58.512Z,15.44
2018-03-11T11:55:10.885Z,15.38
2018-03-11T11:56:17.381Z,15.14
2018-03-11T11:57:24.505Z,15.38
2018-03-11T11:58:30.792Z,15.39
2018-03-11T11:59:37.025Z,15.40
2018-03-11T12:00:43.386Z,15.39
2018-03-11T12:01:49.791Z,15.38
2018-03-11T12:02:55.735Z,15.42
2018-03-11T12:04:01.998Z,15.32
2018-03-11T12:05:08.283Z,15.45
2018-03-11T12:06:15.472Z,15.56
2018-03-11T12:07:22.701Z,15.52
2018-03-11T12:08:28.848Z,15.66
2018-03-11T12:09:35.861Z,15.67
2018-03-11T12:10:42.544Z,15.89
2018-03-11T12:11:48.935Z,15.82
2018-03-11T12:12:55.178Z,15.82
2018-03-11T12:14:01.486Z,16.04
2018-03-11T12:15:08.186Z,16.21
2018-03-11T12:16:14.438Z,16.21
2018-03-11T12:17:21.716Z,15.73
2018-03-11T12:18:28.572Z,15.64
2018-03-11T12:19:35.654Z,15.79
2018-03-11T12:20:41.919Z,15.93
2018-03-11T12:21:48.253Z,16.00
2018-03-11T12:22:54.648Z,15.98
2018-03-11T12:24:01.405Z,16.05
2018-03-11T12:25:07.855Z,15.97
2018-03-11T12:26:14.487Z,16.01
2018-03-11T12:27:20.992Z,15.96
2018-03-11T12:28:27.310Z,16.04
2018-03-11T12:29:34.407Z,15.77
2018-03-11T12:30:40.798Z,15.76
2018-03-11T12:31:47.123Z,15.84
2018-03-11T12:32:53.431Z,15.84
2018-03-11T12:33:59.624Z,15.99
2018-03-11T12:35:05.816Z,16.15
2018-03-11T12:36:12.040Z,16.10
2018-03-11T12:37:18.251Z,16.04
2018-03-11T12:38:30.612Z,16.03
2018-03-11T12:39:36.828Z,16.10
2018-03-11T12:40:43.143Z,16.27
2018-03-11T12:41:49.793Z,16.23
2018-03-11T12:42:55.976Z,16.26
2018-03-11T12:44:02.254Z,16.33
2018-03-11T12:45:08.532Z,16.20
2018-03-11T12:46:15.617Z,16.24
2018-03-11T12:47:21.835Z,16.33
2018-03-11T12:48:28.059Z,16.44
2018-03-11T12:49:34.301Z,16.53
2018-03-11T12:50:40.169Z,16.55
2018-03-11T12:51:46.450Z,16.45
2018-03-11T12:52:52.706Z,16.49
2018-03-11T12:53:58.913Z,16.39
2018-03-11T12:55:05.289Z,16.31
2018-03-11T12:56:11.716Z,16.17
2018-03-11T12:57:18.062Z,16.15
2018-03-11T12:58:24.407Z,16.26
2018-03-11T12:59:30.597Z,16.26
2018-03-11T13:00:38.831Z,16.34
2018-03-11T13:01:45.073Z,16.54
2018-03-11T13:02:52.181Z,16.65
2018-03-11T13:03:58.401Z,16.76
2018-03-11T13:05:04.581Z,16.61
2018-03-11T13:06:11.053Z,16.40
2018-03-11T13:07:17.268Z,16.44
2018-03-11T13:08:23.473Z,16.38
2018-03-11T13:09:29.668Z,16.42
2018-03-11T13:10:35.898Z,16.51
2018-03-11T13:11:42.189Z,16.53
2018-03-11T13:12:48.858Z,16.60
2018-03-11T13:13:56.119Z,16.52
2018-03-11T13:15:02.335Z,16.60
2018-03-11T13:16:08.541Z,16.64
2018-03-11T13:17:14.830Z,16.76
2018-03-11T13:18:21.774Z,16.86
2018-03-11T13:19:28.653Z,17.03
2018-03-11T13:20:45.886Z,17.10
2018-03-11T13:21:51.870Z,16.92
2018-03-11T13:22:58.183Z,16.97
2018-03-11T13:24:03.699Z,17.15
2018-03-11T13:25:10.137Z,17.23
2018-03-11T13:26:16.376Z,17.16
2018-03-11T13:27:22.299Z,16.93
2018-03-11T13:28:39.170Z,16.91
2018-03-11T13:29:45.169Z,17.09
2018-03-11T13:30:52.894Z,17.24
2018-03-11T13:32:11.009Z,17.31
2018-03-11T13:33:28.139Z,17.14
2018-03-11T13:34:34.064Z,17.25
2018-03-11T13:35:40.284Z,17.26
2018-03-11T13:36:46.463Z,17.34
2018-03-11T13:37:51.942Z,17.27
2018-03-11T13:39:09.181Z,17.15
2018-03-11T13:41:55.476Z,16.91
2018-03-11T13:43:01.700Z,16.99
2018-03-11T13:44:07.720Z,17.11
2018-03-11T13:45:25.031Z,17.08
2018-03-11T13:46:47.342Z,17.04
2018-03-11T13:47:52.996Z,17.00
2018-03-11T13:48:59.397Z,16.88
2018-03-11T13:50:05.313Z,17.03
2018-03-11T13:51:11.506Z,17.13
2018-03-11T13:52:28.490Z,16.97
2018-03-11T13:53:45.513Z,17.04
2018-03-11T13:54:51.759Z,17.23
2018-03-11T13:55:57.970Z,17.30
2018-03-11T13:57:15.156Z,17.29
2018-03-11T13:58:32.065Z,17.15
2018-03-11T13:59:38.010Z,17.19
2018-03-11T14:00:44.245Z,17.10
2018-03-11T14:01:50.488Z,16.92
2018-03-11T14:02:56.780Z,16.94
2018-03-11T14:04:03.048Z,16.83
2018-03-11T14:05:09.228Z,16.82
2018-03-11T14:06:15.471Z,16.91
2018-03-11T14:07:21.397Z,16.89
2018-03-11T14:08:27.580Z,16.93
2018-03-11T14:09:33.748Z,16.93
2018-03-11T14:10:39.960Z,16.93
2018-03-11T14:11:46.177Z,16.97
2018-03-11T14:12:52.474Z,16.89
2018-03-11T14:13:58.684Z,16.85
2018-03-11T14:15:04.212Z,16.79
2018-03-11T14:16:10.380Z,16.81
2018-03-11T14:17:16.576Z,16.74
2018-03-11T14:18:22.738Z,16.82
2018-03-11T14:19:29.326Z,16.86
2018-03-11T14:20:35.821Z,16.93
2018-03-11T14:21:42.011Z,16.97
2018-03-11T14:22:49.215Z,17.09
2018-03-11T14:23:56.417Z,17.08
2018-03-11T14:25:02.657Z,16.78
2018-03-11T14:26:08.888Z,16.79
2018-03-11T14:27:15.145Z,16.80
2018-03-11T14:28:21.315Z,16.78
2018-03-11T14:29:27.512Z,16.74
2018-03-11T14:30:33.709Z,16.81
2018-03-11T14:31:40.818Z,16.71
2018-03-11T14:32:47.032Z,16.77
2018-03-11T14:33:53.552Z,16.78
2018-03-11T14:34:59.729Z,16.73
2018-03-11T14:36:06.530Z,16.72
2018-03-11T14:37:12.693Z,16.85
2018-03-11T14:38:18.876Z,16.83